^^
Grace C. Lehan Memorial Weather Station Historical Data
Daily Summary for October 2, 2021 Units:  Both    English   Metric
Daily Weekly Monthly Yearly
  High: Low: Average:
Temperature: 75 °F /  23.9 °C 48.3 °F /  9.1 °C 61.9 °F /  16.6 °C
Dew Point: 59.7 °F /  15.4 °C 46.4 °F /  8 °C 53.8 °F /  12.1 °C
Humidity: 94% 56.5% 76%
Wind Speed: 2.6mph /  4.2km/h - 0.3mph /  0.5km/h
Wind Gust: 11mph /  17.7km/h - -
Wind- - WSW
Pressure: 30.16 in /  1021.2 hPa 29.98 in /  1015.1 hPa -
Precipitation: 0.00 in /  0 mm    
 
 
Tabular Data for October 2, 2021
Time Temperature Dew Point Pressure Wind Wind Speed Wind Gust Humidity Rainfall Rate (Hourly) solar
00:09 50.5 °F /  10.3 °C 47.7 °F /  8.7 °C 30.16in /  1021.2hPa Calm     90% 0.00in /  0mm 0 W/m2
00:14 50.4 °F /  10.2 °C 47.6 °F /  8.7 °C 30.16in /  1021.2hPa Calm     90% 0.00in /  0mm 0 W/m2
00:19 50.4 °F /  10.2 °C 47.6 °F /  8.7 °C 30.15in /  1020.9hPa Calm     90% 0.00in /  0mm 0 W/m2
00:24 50.3 °F /  10.2 °C 47.5 °F /  8.6 °C 30.15in /  1020.9hPa Calm     90% 0.00in /  0mm 0 W/m2
00:29 50.3 °F /  10.2 °C 47.4 °F /  8.6 °C 30.15in /  1020.9hPa Calm     90% 0.00in /  0mm 0 W/m2
00:34 50.2 °F /  10.1 °C 47.7 °F /  8.7 °C 30.15in /  1020.9hPa Calm     91% 0.00in /  0mm 0 W/m2
00:39 50.1 °F /  10.1 °C 47.6 °F /  8.7 °C 30.15in /  1020.9hPa Calm     91% 0.00in /  0mm 0 W/m2
00:44 50.1 °F /  10.1 °C 47.6 °F /  8.7 °C 30.15in /  1020.9hPa Calm     91% 0.00in /  0mm 0 W/m2
00:49 50.1 °F /  10.1 °C 47.6 °F /  8.7 °C 30.15in /  1020.9hPa Calm     91% 0.00in /  0mm 0 W/m2
00:54 50.1 °F /  10.1 °C 47.6 °F /  8.7 °C 30.15in /  1020.9hPa Calm     91% 0.00in /  0mm 0 W/m2
00:59 50.1 °F /  10.1 °C 47.7 °F /  8.7 °C 30.15in /  1020.9hPa Calm     91.4% 0.00in /  0mm 0 W/m2
01:04 50.1 °F /  10.1 °C 47.6 °F /  8.7 °C 30.16in /  1021.2hPa Calm     91.2% 0.00in /  0mm 0 W/m2
01:09 50.1 °F /  10.1 °C 47.6 °F /  8.7 °C 30.16in /  1021.2hPa Calm     91% 0.00in /  0mm 0 W/m2
01:14 50 °F /  10 °C 47.5 °F /  8.6 °C 30.16in /  1021.2hPa Calm     91% 0.00in /  0mm 0 W/m2
01:19 49.9 °F /  9.9 °C 47.6 °F /  8.7 °C 30.16in /  1021.2hPa Calm     91.7% 0.00in /  0mm 0 W/m2
01:24 49.8 °F /  9.9 °C 47.3 °F /  8.5 °C 30.16in /  1021.2hPa Calm     91% 0.00in /  0mm 0 W/m2
01:29 49.7 °F /  9.8 °C 47.4 °F /  8.6 °C 30.15in /  1020.9hPa Calm     91.8% 0.00in /  0mm 0 W/m2
01:34 49.6 °F /  9.8 °C 47.4 °F /  8.6 °C 30.15in /  1020.9hPa Calm     92% 0.00in /  0mm 0 W/m2
01:39 49.5 °F /  9.7 °C 47.3 °F /  8.5 °C 30.15in /  1020.9hPa Calm     92% 0.00in /  0mm 0 W/m2
01:44 49.4 °F /  9.7 °C 47.2 °F /  8.4 °C 30.15in /  1020.9hPa Calm     92% 0.00in /  0mm 0 W/m2
01:49 49.4 °F /  9.7 °C 47.1 °F /  8.4 °C 30.15in /  1020.9hPa Calm     92% 0.00in /  0mm 0 W/m2
01:54 49.2 °F /  9.6 °C 47 °F /  8.3 °C 30.15in /  1020.9hPa Calm     92% 0.00in /  0mm 0 W/m2
01:59 49.1 °F /  9.5 °C 46.9 °F /  8.3 °C 30.15in /  1020.9hPa Calm     92% 0.00in /  0mm 0 W/m2
02:04 48.9 °F /  9.4 °C 46.7 °F /  8.2 °C 30.15in /  1020.9hPa Calm     92% 0.00in /  0mm 0 W/m2
02:09 48.8 °F /  9.3 °C 46.6 °F /  8.1 °C 30.15in /  1020.9hPa Calm     92% 0.00in /  0mm 0 W/m2
02:14 48.8 °F /  9.3 °C 46.6 °F /  8.1 °C 30.14in /  1020.5hPa Calm     92% 0.00in /  0mm 0 W/m2
02:19 48.7 °F /  9.3 °C 46.5 °F /  8.1 °C 30.14in /  1020.5hPa Calm     92% 0.00in /  0mm 0 W/m2
02:24 48.8 °F /  9.3 °C 46.7 °F /  8.2 °C 30.14in /  1020.5hPa Calm     92.7% 0.00in /  0mm 0 W/m2
02:29 48.8 °F /  9.3 °C 46.9 °F /  8.3 °C 30.14in /  1020.5hPa Calm     93% 0.00in /  0mm 0 W/m2
02:34 48.8 °F /  9.3 °C 46.9 °F /  8.3 °C 30.14in /  1020.5hPa Calm     93% 0.00in /  0mm 0 W/m2
02:39 48.8 °F /  9.3 °C 46.9 °F /  8.3 °C 30.14in /  1020.5hPa Calm     93% 0.00in /  0mm 0 W/m2
02:44 48.9 °F /  9.4 °C 46.9 °F /  8.3 °C 30.14in /  1020.5hPa WNW 0.1mph /  0.2km/h 2mph /  3.2km/h 93% 0.00in /  0mm 0 W/m2
02:49 48.9 °F /  9.4 °C 47 °F /  8.3 °C 30.14in /  1020.5hPa Calm   2mph /  3.2km/h 93% 0.00in /  0mm 0 W/m2
02:54 48.9 °F /  9.4 °C 47 °F /  8.3 °C 30.14in /  1020.5hPa Calm   2mph /  3.2km/h 93% 0.00in /  0mm 0 W/m2
02:59 48.9 °F /  9.4 °C 47 °F /  8.3 °C 30.14in /  1020.5hPa Calm   2mph /  3.2km/h 93% 0.00in /  0mm 0 W/m2
03:04 48.9 °F /  9.4 °C 47 °F /  8.3 °C 30.14in /  1020.5hPa Calm   2mph /  3.2km/h 93% 0.00in /  0mm 0 W/m2
03:09 49 °F /  9.4 °C 47.1 °F /  8.4 °C 30.14in /  1020.5hPa Calm     93% 0.00in /  0mm 0 W/m2
03:14 49 °F /  9.4 °C 47.1 °F /  8.4 °C 30.14in /  1020.5hPa Calm     93% 0.00in /  0mm 0 W/m2
03:19 49.1 °F /  9.5 °C 47.2 °F /  8.4 °C 30.14in /  1020.5hPa Calm     93% 0.00in /  0mm 0 W/m2
03:24 49.2 °F /  9.6 °C 47.3 °F /  8.5 °C 30.14in /  1020.5hPa Calm     93% 0.00in /  0mm 0 W/m2
03:29 49.2 °F /  9.6 °C 47.3 °F /  8.5 °C 30.14in /  1020.5hPa Calm     93% 0.00in /  0mm 0 W/m2
03:34 49.2 °F /  9.6 °C 47.3 °F /  8.5 °C 30.14in /  1020.5hPa Calm     93% 0.00in /  0mm 0 W/m2
03:39 49.2 °F /  9.6 °C 47.2 °F /  8.4 °C 30.14in /  1020.5hPa Calm     92.6% 0.00in /  0mm 0 W/m2
03:44 49.1 °F /  9.5 °C 46.9 °F /  8.3 °C 30.14in /  1020.5hPa Calm     92% 0.00in /  0mm 0 W/m2
03:49 49.1 °F /  9.5 °C 46.9 °F /  8.3 °C 30.14in /  1020.5hPa Calm     92% 0.00in /  0mm 0 W/m2
03:54 49 °F /  9.4 °C 46.8 °F /  8.2 °C 30.14in /  1020.5hPa West 0.3mph /  0.5km/h 3mph /  4.8km/h 92% 0.00in /  0mm 0 W/m2
03:59 49 °F /  9.4 °C 46.8 °F /  8.2 °C 30.14in /  1020.5hPa Calm   3mph /  4.8km/h 92% 0.00in /  0mm 0 W/m2
04:09 48.8 °F /  9.3 °C 46.6 °F /  8.1 °C 30.13in /  1020.2hPa Calm     92% 0.00in /  0mm 0 W/m2
04:14 48.8 °F /  9.3 °C 46.6 °F /  8.1 °C 30.14in /  1020.5hPa Calm     92% 0.00in /  0mm 0 W/m2
04:19 48.8 °F /  9.3 °C 46.6 °F /  8.1 °C 30.14in /  1020.5hPa Calm     92% 0.00in /  0mm 0 W/m2
04:24 48.8 °F /  9.3 °C 46.6 °F /  8.1 °C 30.14in /  1020.5hPa Calm     92% 0.00in /  0mm 0 W/m2
04:29 48.8 °F /  9.3 °C 46.5 °F /  8.1 °C 30.14in /  1020.5hPa Calm     92% 0.00in /  0mm 0 W/m2
04:34 48.8 °F /  9.3 °C 46.6 °F /  8.1 °C 30.14in /  1020.5hPa Calm     92% 0.00in /  0mm 0 W/m2
04:39 48.8 °F /  9.3 °C 46.6 °F /  8.1 °C 30.14in /  1020.5hPa Calm     92% 0.00in /  0mm 0 W/m2
04:44 48.8 °F /  9.3 °C 46.6 °F /  8.1 °C 30.14in /  1020.5hPa Calm     92.1% 0.00in /  0mm 0 W/m2
04:49 48.9 °F /  9.4 °C 47 °F /  8.3 °C 30.13in /  1020.2hPa Calm     93% 0.00in /  0mm 0 W/m2
04:54 49 °F /  9.4 °C 47.1 °F /  8.4 °C 30.14in /  1020.5hPa Calm     93% 0.00in /  0mm 0 W/m2
04:59 49.1 °F /  9.5 °C 47.1 °F /  8.4 °C 30.14in /  1020.5hPa Calm     93% 0.00in /  0mm 0 W/m2
05:04 49.1 °F /  9.5 °C 47.2 °F /  8.4 °C 30.14in /  1020.5hPa Calm     93% 0.00in /  0mm 0 W/m2
05:09 49 °F /  9.4 °C 46.9 °F /  8.3 °C 30.14in /  1020.5hPa Calm     92.2% 0.00in /  0mm 0 W/m2
05:14 49 °F /  9.4 °C 46.8 °F /  8.2 °C 30.13in /  1020.2hPa Calm     92% 0.00in /  0mm 0 W/m2
05:19 49 °F /  9.4 °C 46.9 °F /  8.3 °C 30.14in /  1020.5hPa West 0.2mph /  0.3km/h 3mph /  4.8km/h 92.2% 0.00in /  0mm 0 W/m2
05:24 49 °F /  9.4 °C 47.1 °F /  8.4 °C 30.13in /  1020.2hPa Calm   3mph /  4.8km/h 93% 0.00in /  0mm 0 W/m2
05:29 49.1 °F /  9.5 °C 47.1 °F /  8.4 °C 30.13in /  1020.2hPa Calm   3mph /  4.8km/h 93% 0.00in /  0mm 0 W/m2
05:34 49.1 °F /  9.5 °C 47.1 °F /  8.4 °C 30.13in /  1020.2hPa Calm   3mph /  4.8km/h 93% 0.00in /  0mm 0 W/m2
05:39 48.9 °F /  9.4 °C 46.7 °F /  8.2 °C 30.13in /  1020.2hPa Calm     92% 0.00in /  0mm 0 W/m2
05:44 48.8 °F /  9.3 °C 46.6 °F /  8.1 °C 30.13in /  1020.2hPa Calm     92% 0.00in /  0mm 0 W/m2
05:49 48.7 °F /  9.3 °C 46.6 °F /  8.1 °C 30.13in /  1020.2hPa Calm     92.4% 0.00in /  0mm 0 W/m2
05:54 48.6 °F /  9.2 °C 46.7 °F /  8.2 °C 30.13in /  1020.2hPa Calm     93% 0.00in /  0mm 0 W/m2
05:59 48.5 °F /  9.2 °C 46.6 °F /  8.1 °C 30.12in /  1019.9hPa Calm     93% 0.00in /  0mm 0 W/m2
06:04 48.5 °F /  9.2 °C 46.5 °F /  8.1 °C 30.12in /  1019.9hPa Calm     93% 0.00in /  0mm 0 W/m2
06:09 48.4 °F /  9.1 °C 46.5 °F /  8.1 °C 30.12in /  1019.9hPa Calm     93% 0.00in /  0mm 0 W/m2
06:14 48.4 °F /  9.1 °C 46.5 °F /  8.1 °C 30.12in /  1019.9hPa Calm     93% 0.00in /  0mm 0 W/m2
06:19 48.3 °F /  9.1 °C 46.4 °F /  8 °C 30.12in /  1019.9hPa Calm     93% 0.00in /  0mm 0 W/m2
06:24 48.3 °F /  9.1 °C 46.4 °F /  8 °C 30.12in /  1019.9hPa Calm     93% 0.00in /  0mm 0 W/m2
06:29 48.4 °F /  9.1 °C 46.5 °F /  8.1 °C 30.12in /  1019.9hPa Calm     93% 0.00in /  0mm 0 W/m2
06:34 48.5 °F /  9.2 °C 46.9 °F /  8.3 °C 30.12in /  1019.9hPa Calm     93.9% 0.00in /  0mm 0 W/m2
06:39 48.7 °F /  9.3 °C 47 °F /  8.3 °C 30.11in /  1019.5hPa Calm     94% 0.00in /  0mm 0 W/m2
06:44 48.7 °F /  9.3 °C 47 °F /  8.3 °C 30.12in /  1019.9hPa West 0.2mph /  0.3km/h 4mph /  6.4km/h 93.8% 0.00in /  0mm 0 W/m2
06:49 48.7 °F /  9.3 °C 46.8 °F /  8.2 °C 30.12in /  1019.9hPa Calm   4mph /  6.4km/h 93% 0.00in /  0mm 0 W/m2
06:54 48.7 °F /  9.3 °C 46.9 °F /  8.3 °C 30.12in /  1019.9hPa Calm   4mph /  6.4km/h 93.3% 0.00in /  0mm 5 W/m2
06:59 48.8 °F /  9.3 °C 47 °F /  8.3 °C 30.12in /  1019.9hPa West 0.8mph /  1.3km/h 6mph /  9.7km/h 93.6% 0.00in /  0mm 11 W/m2
07:04 48.9 °F /  9.4 °C 47.2 °F /  8.4 °C 30.12in /  1019.9hPa WSW 1.6mph /  2.6km/h 7mph /  11.3km/h 94% 0.00in /  0mm 12 W/m2
07:09 49.1 °F /  9.5 °C 47.5 °F /  8.6 °C 30.12in /  1019.9hPa WSW 1mph /  1.6km/h 11mph /  17.7km/h 94% 0.00in /  0mm 19 W/m2
07:14 49.3 °F /  9.6 °C 47.7 °F /  8.7 °C 30.12in /  1019.9hPa WSW 0.6mph /  1km/h 11mph /  17.7km/h 94% 0.00in /  0mm 25 W/m2
07:19 49.6 °F /  9.8 °C 48 °F /  8.9 °C 30.12in /  1019.9hPa WSW 1.3mph /  2.1km/h 11mph /  17.7km/h 94% 0.00in /  0mm 25 W/m2
07:24 49.9 °F /  9.9 °C 48.3 °F /  9.1 °C 30.12in /  1019.9hPa WSW 1.2mph /  1.9km/h 11mph /  17.7km/h 94% 0.00in /  0mm 23 W/m2
07:29 50.2 °F /  10.1 °C 48.5 °F /  9.2 °C 30.12in /  1019.9hPa WSW 1.5mph /  2.4km/h 11mph /  17.7km/h 93.6% 0.00in /  0mm 26 W/m2
07:34 50.6 °F /  10.3 °C 48.6 °F /  9.2 °C 30.13in /  1020.2hPa West 0.9mph /  1.4km/h 11mph /  17.7km/h 93% 0.00in /  0mm 26 W/m2
07:39 50.9 °F /  10.5 °C 48.7 °F /  9.3 °C 30.13in /  1020.2hPa WSW 0.5mph /  0.8km/h 7mph /  11.3km/h 92.2% 0.00in /  0mm 25 W/m2
07:44 51.2 °F /  10.7 °C 49 °F /  9.4 °C 30.13in /  1020.2hPa West 0.1mph /  0.2km/h 7mph /  11.3km/h 92% 0.00in /  0mm 25 W/m2
07:49 51.4 °F /  10.8 °C 48.9 °F /  9.4 °C 30.13in /  1020.2hPa Calm   7mph /  11.3km/h 91% 0.00in /  0mm 33 W/m2
07:54 51.5 °F /  10.8 °C 48.9 °F /  9.4 °C 30.13in /  1020.2hPa Calm   7mph /  11.3km/h 90.9% 0.00in /  0mm 35 W/m2
07:59 51.6 °F /  10.9 °C 48.7 °F /  9.3 °C 30.13in /  1020.2hPa Calm   7mph /  11.3km/h 90% 0.00in /  0mm 47 W/m2
08:04 51.8 °F /  11 °C 49.3 °F /  9.6 °C 30.13in /  1020.2hPa West 2mph /  3.2km/h 2mph /  3.2km/h 91% 0.00in /  0mm 54 W/m2
08:09 51.9 °F /  11.1 °C 49.4 °F /  9.7 °C 30.13in /  1020.2hPa West 0.3mph /  0.5km/h 2mph /  3.2km/h 91% 0.00in /  0mm 54 W/m2
08:14 52.2 °F /  11.2 °C 49.4 °F /  9.7 °C 30.13in /  1020.2hPa West 0.1mph /  0.2km/h 2mph /  3.2km/h 90.1% 0.00in /  0mm 46 W/m2
08:19 52.5 °F /  11.4 °C 49.5 °F /  9.7 °C 30.13in /  1020.2hPa West 0.4mph /  0.6km/h 5mph /  8km/h 89.6% 0.00in /  0mm 37 W/m2
08:24 52.8 °F /  11.6 °C 49.7 °F /  9.8 °C 30.13in /  1020.2hPa Calm   5mph /  8km/h 89% 0.00in /  0mm 39 W/m2
08:29 53.1 °F /  11.7 °C 49.7 °F /  9.8 °C 30.13in /  1020.2hPa Calm   5mph /  8km/h 88% 0.00in /  0mm 40 W/m2
08:34 53.5 °F /  11.9 °C 49.8 °F /  9.9 °C 30.13in /  1020.2hPa Calm   5mph /  8km/h 87.4% 0.00in /  0mm 40 W/m2
08:39 53.8 °F /  12.1 °C 50.1 °F /  10.1 °C 30.13in /  1020.2hPa West 0.2mph /  0.3km/h 3mph /  4.8km/h 87% 0.00in /  0mm 47 W/m2
08:44 54.2 °F /  12.3 °C 50.2 °F /  10.1 °C 30.12in /  1019.9hPa West 0.2mph /  0.3km/h 4mph /  6.4km/h 86.4% 0.00in /  0mm 54 W/m2
08:49 54.5 °F /  12.5 °C 50.4 °F /  10.2 °C 30.12in /  1019.9hPa Calm   4mph /  6.4km/h 86% 0.00in /  0mm 58 W/m2
08:54 54.8 °F /  12.7 °C 50.7 °F /  10.4 °C 30.12in /  1019.9hPa Calm   4mph /  6.4km/h 86% 0.00in /  0mm 69 W/m2
08:59 55.2 °F /  12.9 °C 51 °F /  10.6 °C 30.12in /  1019.9hPa Calm   4mph /  6.4km/h 85.7% 0.00in /  0mm 98 W/m2
09:04 55.7 °F /  13.2 °C 51.3 °F /  10.7 °C 30.12in /  1019.9hPa Calm   4mph /  6.4km/h 85% 0.00in /  0mm 172 W/m2
09:09 56.3 °F /  13.5 °C 51.5 °F /  10.8 °C 30.12in /  1019.9hPa West 0.1mph /  0.2km/h 1mph /  1.6km/h 84.1% 0.00in /  0mm 404 W/m2
09:14 57.1 °F /  13.9 °C 52 °F /  11.1 °C 30.12in /  1019.9hPa West 0.1mph /  0.2km/h 3mph /  4.8km/h 83.2% 0.00in /  0mm 417 W/m2
09:19 58.3 °F /  14.6 °C 53 °F /  11.7 °C 30.11in /  1019.5hPa West 0.3mph /  0.5km/h 3mph /  4.8km/h 82.5% 0.00in /  0mm 408 W/m2
09:24 59.6 °F /  15.3 °C 53.5 °F /  11.9 °C 30.11in /  1019.5hPa West 0.3mph /  0.5km/h 3mph /  4.8km/h 80.2% 0.00in /  0mm 350 W/m2
09:29 60.6 °F /  15.9 °C 53.7 °F /  12.1 °C 30.11in /  1019.5hPa WSW 0.4mph /  0.6km/h 4mph /  6.4km/h 77.9% 0.00in /  0mm 489 W/m2
09:34 61.7 °F /  16.5 °C 54.2 °F /  12.3 °C 30.11in /  1019.5hPa WSW 0.8mph /  1.3km/h 5mph /  8km/h 76.5% 0.00in /  0mm 497 W/m2
09:39 62.5 °F /  16.9 °C 54.3 °F /  12.4 °C 30.11in /  1019.5hPa WSW 0.1mph /  0.2km/h 5mph /  8km/h 74.7% 0.00in /  0mm 413 W/m2
09:44 63.2 °F /  17.3 °C 54.6 °F /  12.6 °C 30.11in /  1019.5hPa WSW 0.3mph /  0.5km/h 5mph /  8km/h 73.4% 0.00in /  0mm 483 W/m2
09:49 63.9 °F /  17.7 °C 55.2 °F /  12.9 °C 30.11in /  1019.5hPa WSW 0.3mph /  0.5km/h 5mph /  8km/h 73.3% 0.00in /  0mm 512 W/m2
09:54 64.8 °F /  18.2 °C 55.5 °F /  13.1 °C 30.11in /  1019.5hPa WSW 0.5mph /  0.8km/h 5mph /  8km/h 72% 0.00in /  0mm 513 W/m2
09:59 65.6 °F /  18.7 °C 55.3 °F /  12.9 °C 30.11in /  1019.5hPa WSW 0.2mph /  0.3km/h 5mph /  8km/h 69.4% 0.00in /  0mm 519 W/m2
10:04 66.4 °F /  19.1 °C 56.2 °F /  13.4 °C 30.11in /  1019.5hPa WSW 0.8mph /  1.3km/h 6mph /  9.7km/h 69.6% 0.00in /  0mm 529 W/m2
10:09 67.1 °F /  19.5 °C 56.2 °F /  13.4 °C 30.11in /  1019.5hPa WSW 0.1mph /  0.2km/h 6mph /  9.7km/h 68% 0.00in /  0mm 536 W/m2
10:14 67.7 °F /  19.8 °C 56.6 °F /  13.7 °C 30.11in /  1019.5hPa Calm   6mph /  9.7km/h 67.7% 0.00in /  0mm 534 W/m2
10:19 68 °F /  20 °C 56.2 °F /  13.4 °C 30.11in /  1019.5hPa WSW 0.1mph /  0.2km/h 6mph /  9.7km/h 65.8% 0.00in /  0mm 534 W/m2
10:24 68.3 °F /  20.2 °C 56.3 °F /  13.5 °C 30.10in /  1019.2hPa WSW 1.1mph /  1.8km/h 6mph /  9.7km/h 65.6% 0.00in /  0mm 540 W/m2
10:29 68.5 °F /  20.3 °C 56.4 °F /  13.6 °C 30.10in /  1019.2hPa Calm   6mph /  9.7km/h 65.4% 0.00in /  0mm 575 W/m2
10:34 68.7 °F /  20.4 °C 56.2 °F /  13.4 °C 30.10in /  1019.2hPa West 0.6mph /  1km/h 9mph /  14.5km/h 64.3% 0.00in /  0mm 606 W/m2
10:39 68.9 °F /  20.5 °C 56.5 °F /  13.6 °C 30.10in /  1019.2hPa WSW 0.2mph /  0.3km/h 9mph /  14.5km/h 64.7% 0.00in /  0mm 608 W/m2
10:44 69.4 °F /  20.8 °C 56.8 °F /  13.8 °C 30.10in /  1019.2hPa WSW 0.6mph /  1km/h 9mph /  14.5km/h 64.2% 0.00in /  0mm 633 W/m2
10:49 69.9 °F /  21.1 °C 56.8 °F /  13.8 °C 30.10in /  1019.2hPa SW 0.5mph /  0.8km/h 9mph /  14.5km/h 63.1% 0.00in /  0mm 628 W/m2
10:54 70.3 °F /  21.3 °C 57 °F /  13.9 °C 30.09in /  1018.8hPa WSW 0.8mph /  1.3km/h 9mph /  14.5km/h 62.7% 0.00in /  0mm 561 W/m2
10:59 70.6 °F /  21.4 °C 57.1 °F /  13.9 °C 30.09in /  1018.8hPa Calm   9mph /  14.5km/h 62.3% 0.00in /  0mm 540 W/m2
11:04 70.8 °F /  21.6 °C 57.2 °F /  14 °C 30.09in /  1018.8hPa WSW 0.7mph /  1.1km/h 9mph /  14.5km/h 62% 0.00in /  0mm 613 W/m2
11:09 71.2 °F /  21.8 °C 57.3 °F /  14.1 °C 30.09in /  1018.8hPa Calm   4mph /  6.4km/h 61.5% 0.00in /  0mm 605 W/m2
11:14 71.3 °F /  21.8 °C 56.8 °F /  13.8 °C 30.08in /  1018.5hPa Calm   4mph /  6.4km/h 60.1% 0.00in /  0mm 596 W/m2
11:19 71.3 °F /  21.8 °C 57.1 °F /  13.9 °C 30.08in /  1018.5hPa Calm   4mph /  6.4km/h 60.9% 0.00in /  0mm 686 W/m2
11:24 71.5 °F /  21.9 °C 57.3 °F /  14.1 °C 30.08in /  1018.5hPa WNW 0.2mph /  0.3km/h 4mph /  6.4km/h 61.1% 0.00in /  0mm 703 W/m2
11:29 71.7 °F /  22.1 °C 56.7 °F /  13.7 °C 30.08in /  1018.5hPa WNW 0.1mph /  0.2km/h 4mph /  6.4km/h 59.3% 0.00in /  0mm 679 W/m2
11:34 71.4 °F /  21.9 °C 56.4 °F /  13.6 °C 30.08in /  1018.5hPa West 0.2mph /  0.3km/h 4mph /  6.4km/h 59.1% 0.00in /  0mm 429 W/m2
11:39 71.5 °F /  21.9 °C 58.3 °F /  14.6 °C 30.08in /  1018.5hPa SW 0.4mph /  0.6km/h 4mph /  6.4km/h 63% 0.00in /  0mm 251 W/m2
11:44 71.8 °F /  22.1 °C 56.9 °F /  13.8 °C 30.08in /  1018.5hPa Calm   4mph /  6.4km/h 59.4% 0.00in /  0mm 308 W/m2
11:49 71.8 °F /  22.1 °C 56.7 °F /  13.7 °C 30.08in /  1018.5hPa SW 0.2mph /  0.3km/h 4mph /  6.4km/h 59.1% 0.00in /  0mm 213 W/m2
11:54 71.8 °F /  22.1 °C 57.3 °F /  14.1 °C 30.08in /  1018.5hPa SW 0.3mph /  0.5km/h 4mph /  6.4km/h 60.3% 0.00in /  0mm 186 W/m2
11:59 71.8 °F /  22.1 °C 57.5 °F /  14.2 °C 30.07in /  1018.2hPa SW 0.7mph /  1.1km/h 6mph /  9.7km/h 60.7% 0.00in /  0mm 186 W/m2
12:00 71.9 °F /  22.2 °C 57.3 °F /  14.1 °C 30.07in /  1018.2hPa Calm   6mph /  9.7km/h 60% 0.00in /  0mm 146 W/m2
12:09 71.9 °F /  22.2 °C 56.5 °F /  13.6 °C 30.06in /  1017.8hPa WSW 0.8mph /  1.3km/h 4mph /  6.4km/h 58.4% 0.00in /  0mm 192 W/m2
12:14 71.8 °F /  22.1 °C 56.7 °F /  13.7 °C 30.06in /  1017.8hPa Calm   4mph /  6.4km/h 59% 0.00in /  0mm 577 W/m2
12:19 71.8 °F /  22.1 °C 56.9 °F /  13.8 °C 30.06in /  1017.8hPa West 0.3mph /  0.5km/h 5mph /  8km/h 59.4% 0.00in /  0mm 577 W/m2
12:24 71.8 °F /  22.1 °C 56.8 °F /  13.8 °C 30.06in /  1017.8hPa WSW 0.7mph /  1.1km/h 5mph /  8km/h 59.2% 0.00in /  0mm 436 W/m2
12:29 72 °F /  22.2 °C 57.1 °F /  13.9 °C 30.06in /  1017.8hPa WSW 0.8mph /  1.3km/h 5mph /  8km/h 59.4% 0.00in /  0mm 369 W/m2
12:34 72.2 °F /  22.3 °C 56.8 °F /  13.8 °C 30.05in /  1017.5hPa WSW 0.9mph /  1.4km/h 10mph /  16.1km/h 58.4% 0.00in /  0mm 130 W/m2
12:39 72.3 °F /  22.4 °C 56.6 °F /  13.7 °C 30.05in /  1017.5hPa SW 0.5mph /  0.8km/h 10mph /  16.1km/h 57.7% 0.00in /  0mm 113 W/m2
12:44 72.3 °F /  22.4 °C 56.8 °F /  13.8 °C 30.05in /  1017.5hPa SW 1mph /  1.6km/h 10mph /  16.1km/h 58.2% 0.00in /  0mm 172 W/m2
12:49 72.4 °F /  22.4 °C 56.5 °F /  13.6 °C 30.05in /  1017.5hPa WSW 0.8mph /  1.3km/h 10mph /  16.1km/h 57.4% 0.00in /  0mm 209 W/m2
12:54 72.4 °F /  22.4 °C 56.9 °F /  13.8 °C 30.05in /  1017.5hPa West 0.7mph /  1.1km/h 10mph /  16.1km/h 58% 0.00in /  0mm 137 W/m2
12:59 72.6 °F /  22.6 °C 57.1 °F /  13.9 °C 30.05in /  1017.5hPa Calm   10mph /  16.1km/h 58.2% 0.00in /  0mm 183 W/m2
13:04 72.8 °F /  22.7 °C 56.8 °F /  13.8 °C 30.05in /  1017.5hPa West 0.4mph /  0.6km/h 10mph /  16.1km/h 57.2% 0.00in /  0mm 313 W/m2
13:09 72.8 °F /  22.7 °C 57.6 °F /  14.2 °C 30.05in /  1017.5hPa West 0.2mph /  0.3km/h 5mph /  8km/h 59% 0.00in /  0mm 153 W/m2
13:14 72.8 °F /  22.7 °C 57.4 °F /  14.1 °C 30.04in /  1017.2hPa West 0.7mph /  1.1km/h 6mph /  9.7km/h 58.6% 0.00in /  0mm 134 W/m2
13:19 72.7 °F /  22.6 °C 57 °F /  13.9 °C 30.04in /  1017.2hPa WSW 0.7mph /  1.1km/h 6mph /  9.7km/h 57.7% 0.00in /  0mm 155 W/m2
13:24 72.7 °F /  22.6 °C 57.3 °F /  14.1 °C 30.04in /  1017.2hPa West 0.6mph /  1km/h 6mph /  9.7km/h 58.5% 0.00in /  0mm 211 W/m2
13:29 72.7 °F /  22.6 °C 57.6 °F /  14.2 °C 30.04in /  1017.2hPa West 0.5mph /  0.8km/h 6mph /  9.7km/h 59.2% 0.00in /  0mm 192 W/m2
13:34 72.8 °F /  22.7 °C 58 °F /  14.4 °C 30.04in /  1017.2hPa Calm   6mph /  9.7km/h 59.7% 0.00in /  0mm 220 W/m2
13:39 72.9 °F /  22.7 °C 57.9 °F /  14.4 °C 30.04in /  1017.2hPa West 0.2mph /  0.3km/h 4mph /  6.4km/h 59.4% 0.00in /  0mm 225 W/m2
13:44 73 °F /  22.8 °C 57.9 °F /  14.4 °C 30.03in /  1016.8hPa West 1.1mph /  1.8km/h 4mph /  6.4km/h 59.3% 0.00in /  0mm 197 W/m2
13:49 73.1 °F /  22.8 °C 58.2 °F /  14.6 °C 30.03in /  1016.8hPa Calm   4mph /  6.4km/h 59.6% 0.00in /  0mm 181 W/m2
13:54 73.2 °F /  22.9 °C 58.7 °F /  14.8 °C 30.03in /  1016.8hPa West 0.6mph /  1km/h 4mph /  6.4km/h 60.5% 0.00in /  0mm 146 W/m2
13:59 73.2 °F /  22.9 °C 58.4 °F /  14.7 °C 30.03in /  1016.8hPa WSW 0.4mph /  0.6km/h 4mph /  6.4km/h 59.8% 0.00in /  0mm 327 W/m2
14:04 73.3 °F /  22.9 °C 58.7 °F /  14.8 °C 30.03in /  1016.8hPa WSW 0.8mph /  1.3km/h 4mph /  6.4km/h 60.2% 0.00in /  0mm 327 W/m2
14:09 73.5 °F /  23.1 °C 58.3 °F /  14.6 °C 30.03in /  1016.8hPa WSW 1.7mph /  2.7km/h 10mph /  16.1km/h 59.1% 0.00in /  0mm 320 W/m2
14:14 73.7 °F /  23.2 °C 58.9 °F /  14.9 °C 30.02in /  1016.5hPa SW 1.5mph /  2.4km/h 10mph /  16.1km/h 59.7% 0.00in /  0mm 83 W/m2
14:19 73.9 °F /  23.3 °C 58.5 °F /  14.7 °C 30.02in /  1016.5hPa SW 0.2mph /  0.3km/h 10mph /  16.1km/h 58.5% 0.00in /  0mm 60 W/m2
14:24 73.9 °F /  23.3 °C 58.8 °F /  14.9 °C 30.02in /  1016.5hPa West 0.4mph /  0.6km/h 10mph /  16.1km/h 59.1% 0.00in /  0mm 74 W/m2
14:29 74.1 °F /  23.4 °C 59 °F /  15 °C 30.02in /  1016.5hPa WNW 2mph /  3.2km/h 10mph /  16.1km/h 59.3% 0.00in /  0mm 74 W/m2
14:34 74.3 °F /  23.5 °C 58.5 °F /  14.7 °C 30.02in /  1016.5hPa West 1.9mph /  3.1km/h 10mph /  16.1km/h 57.8% 0.00in /  0mm 156 W/m2
14:39 74.4 °F /  23.6 °C 58.5 °F /  14.7 °C 30.02in /  1016.5hPa West 1.4mph /  2.3km/h 7mph /  11.3km/h 57.7% 0.00in /  0mm 181 W/m2
14:44 74.5 °F /  23.6 °C 58.5 °F /  14.7 °C 30.01in /  1016.1hPa WSW 2mph /  3.2km/h 7mph /  11.3km/h 57.5% 0.00in /  0mm 292 W/m2
14:49 74.5 °F /  23.6 °C 58.2 °F /  14.6 °C 30.01in /  1016.1hPa SW 0.4mph /  0.6km/h 7mph /  11.3km/h 56.8% 0.00in /  0mm 216 W/m2
14:54 74.6 °F /  23.7 °C 58.4 °F /  14.7 °C 30.01in /  1016.1hPa SW 1.1mph /  1.8km/h 7mph /  11.3km/h 57% 0.00in /  0mm 188 W/m2
14:59 74.6 °F /  23.7 °C 58.1 °F /  14.5 °C 30.01in /  1016.1hPa WNW 2.6mph /  4.2km/h 10mph /  16.1km/h 56.5% 0.00in /  0mm 220 W/m2
15:04 74.6 °F /  23.7 °C 58.3 °F /  14.6 °C 30.00in /  1015.8hPa WNW 1.1mph /  1.8km/h 10mph /  16.1km/h 56.8% 0.00in /  0mm 162 W/m2
15:09 74.7 °F /  23.7 °C 58.2 °F /  14.6 °C 30.00in /  1015.8hPa West 1.7mph /  2.7km/h 5mph /  8km/h 56.5% 0.00in /  0mm 56 W/m2
15:14 74.7 °F /  23.7 °C 58.7 °F /  14.8 °C 30.00in /  1015.8hPa WSW 0.9mph /  1.4km/h 5mph /  8km/h 57.5% 0.00in /  0mm 44 W/m2
15:19 74.8 °F /  23.8 °C 58.4 °F /  14.7 °C 30.00in /  1015.8hPa WSW 1.1mph /  1.8km/h 5mph /  8km/h 56.7% 0.00in /  0mm 246 W/m2
15:24 74.8 °F /  23.8 °C 58.8 °F /  14.9 °C 30.00in /  1015.8hPa WSW 1.6mph /  2.6km/h 5mph /  8km/h 57.5% 0.00in /  0mm 288 W/m2
15:29 74.9 °F /  23.8 °C 59.4 °F /  15.2 °C 30.00in /  1015.8hPa WSW 1mph /  1.6km/h 5mph /  8km/h 58.6% 0.00in /  0mm 171 W/m2
15:34 75 °F /  23.9 °C 59.4 °F /  15.2 °C 30.00in /  1015.8hPa West 2.2mph /  3.5km/h 6mph /  9.7km/h 58.3% 0.00in /  0mm 109 W/m2
15:39 75 °F /  23.9 °C 59.1 °F /  15.1 °C 30.00in /  1015.8hPa West 1.3mph /  2.1km/h 5mph /  8km/h 57.8% 0.00in /  0mm 109 W/m2
15:44 75 °F /  23.9 °C 58.8 °F /  14.9 °C 30.00in /  1015.8hPa SW 1.3mph /  2.1km/h 5mph /  8km/h 57% 0.00in /  0mm 139 W/m2
15:49 75 °F /  23.9 °C 58.7 °F /  14.8 °C 30.00in /  1015.8hPa SW 1.6mph /  2.6km/h 5mph /  8km/h 57% 0.00in /  0mm 42 W/m2
15:54 74.9 °F /  23.8 °C 58.4 °F /  14.7 °C 30.00in /  1015.8hPa SW 1.9mph /  3.1km/h 5mph /  8km/h 56.6% 0.00in /  0mm 40 W/m2
15:59 74.7 °F /  23.7 °C 58.5 °F /  14.7 °C 29.99in /  1015.5hPa SW 1.6mph /  2.6km/h 5mph /  8km/h 56.9% 0.00in /  0mm 39 W/m2
16:00 74.7 °F /  23.7 °C 59 °F /  15 °C 29.99in /  1015.5hPa Calm   5mph /  8km/h 58% 0.00in /  0mm 39 W/m2
16:09 74.6 °F /  23.7 °C 58.9 °F /  14.9 °C 29.99in /  1015.5hPa WSW 1.9mph /  3.1km/h 5mph /  8km/h 58% 0.00in /  0mm 37 W/m2
16:14 74.6 °F /  23.7 °C 59.1 °F /  15.1 °C 29.99in /  1015.5hPa WSW 1.2mph /  1.9km/h 6mph /  9.7km/h 58.6% 0.00in /  0mm 37 W/m2
16:19 74.6 °F /  23.7 °C 59 °F /  15 °C 29.99in /  1015.5hPa SW 0.1mph /  0.2km/h 6mph /  9.7km/h 58.5% 0.00in /  0mm 35 W/m2
16:24 74.5 °F /  23.6 °C 59.4 °F /  15.2 °C 29.99in /  1015.5hPa SW 1.2mph /  1.9km/h 6mph /  9.7km/h 59.3% 0.00in /  0mm 35 W/m2
16:29 74.5 °F /  23.6 °C 59 °F /  15 °C 29.99in /  1015.5hPa WSW 1.3mph /  2.1km/h 6mph /  9.7km/h 58.5% 0.00in /  0mm 33 W/m2
16:34 74.4 °F /  23.6 °C 59.2 °F /  15.1 °C 29.98in /  1015.1hPa WSW 0.3mph /  0.5km/h 6mph /  9.7km/h 58.9% 0.00in /  0mm 33 W/m2
16:39 74.4 °F /  23.6 °C 59.5 °F /  15.3 °C 29.98in /  1015.1hPa WSW 2.1mph /  3.4km/h 7mph /  11.3km/h 59.7% 0.00in /  0mm 32 W/m2
16:44 74.5 °F /  23.6 °C 59.4 °F /  15.2 °C 29.98in /  1015.1hPa WNW 1.8mph /  2.9km/h 7mph /  11.3km/h 59.4% 0.00in /  0mm 32 W/m2
16:49 74.4 °F /  23.6 °C 59.6 °F /  15.3 °C 29.98in /  1015.1hPa WNW 0.4mph /  0.6km/h 7mph /  11.3km/h 59.9% 0.00in /  0mm 30 W/m2
16:54 74.4 °F /  23.6 °C 59.7 °F /  15.4 °C 29.99in /  1015.5hPa WNW 0.3mph /  0.5km/h 7mph /  11.3km/h 60.2% 0.00in /  0mm 30 W/m2
16:59 74.4 °F /  23.6 °C 59.5 °F /  15.3 °C 29.99in /  1015.5hPa West 1.2mph /  1.9km/h 7mph /  11.3km/h 59.8% 0.00in /  0mm 30 W/m2
17:04 74.3 °F /  23.5 °C 59.1 °F /  15.1 °C 29.99in /  1015.5hPa West 0.7mph /  1.1km/h 7mph /  11.3km/h 59% 0.00in /  0mm 28 W/m2
17:09 74.2 °F /  23.4 °C 59 °F /  15 °C 29.99in /  1015.5hPa WSW 0.9mph /  1.4km/h 4mph /  6.4km/h 59.1% 0.00in /  0mm 26 W/m2
17:14 74.1 °F /  23.4 °C 59.5 °F /  15.3 °C 29.99in /  1015.5hPa WSW 0.9mph /  1.4km/h 5mph /  8km/h 60.3% 0.00in /  0mm 26 W/m2
17:19 74 °F /  23.3 °C 59.6 °F /  15.3 °C 29.99in /  1015.5hPa WSW 0.9mph /  1.4km/h 5mph /  8km/h 60.7% 0.00in /  0mm 25 W/m2
17:24 73.8 °F /  23.2 °C 59.5 °F /  15.3 °C 29.99in /  1015.5hPa WSW 0.9mph /  1.4km/h 5mph /  8km/h 60.8% 0.00in /  0mm 25 W/m2
17:29 73.6 °F /  23.1 °C 59.1 °F /  15.1 °C 29.99in /  1015.5hPa WSW 0.5mph /  0.8km/h 5mph /  8km/h 60.5% 0.00in /  0mm 23 W/m2
17:34 73.4 °F /  23 °C 59.2 °F /  15.1 °C 29.99in /  1015.5hPa WSW 0.1mph /  0.2km/h 5mph /  8km/h 61% 0.00in /  0mm 21 W/m2
17:39 73.2 °F /  22.9 °C 59 °F /  15 °C 29.99in /  1015.5hPa WSW 0.6mph /  1km/h 3mph /  4.8km/h 61% 0.00in /  0mm 19 W/m2
17:44 73 °F /  22.8 °C 58.9 °F /  14.9 °C 29.99in /  1015.5hPa WSW 0.1mph /  0.2km/h 3mph /  4.8km/h 61.3% 0.00in /  0mm 18 W/m2
17:49 72.7 °F /  22.6 °C 59 °F /  15 °C 29.99in /  1015.5hPa Calm   3mph /  4.8km/h 62% 0.00in /  0mm 16 W/m2
17:54 72.5 °F /  22.5 °C 58.9 °F /  14.9 °C 29.98in /  1015.1hPa WSW 0.2mph /  0.3km/h 3mph /  4.8km/h 62.4% 0.00in /  0mm 14 W/m2
17:59 72.3 °F /  22.4 °C 59 °F /  15 °C 29.98in /  1015.1hPa WSW 0.2mph /  0.3km/h 3mph /  4.8km/h 63% 0.00in /  0mm 12 W/m2
18:04 72 °F /  22.2 °C 58.8 °F /  14.9 °C 29.98in /  1015.1hPa Calm   3mph /  4.8km/h 63.1% 0.00in /  0mm 12 W/m2
18:09 71.8 °F /  22.1 °C 59 °F /  15 °C 29.98in /  1015.1hPa Calm     64% 0.00in /  0mm 11 W/m2
18:14 71.6 °F /  22 °C 58.7 °F /  14.8 °C 29.99in /  1015.5hPa Calm   1mph /  1.6km/h 64% 0.00in /  0mm 7 W/m2
18:19 71.3 °F /  21.8 °C 58.9 °F /  14.9 °C 29.99in /  1015.5hPa Calm   1mph /  1.6km/h 65% 0.00in /  0mm 5 W/m2
18:24 71 °F /  21.7 °C 58.9 °F /  14.9 °C 29.99in /  1015.5hPa Calm   1mph /  1.6km/h 65.6% 0.00in /  0mm 0 W/m2
18:29 70.7 °F /  21.5 °C 58.8 °F /  14.9 °C 29.99in /  1015.5hPa Calm   1mph /  1.6km/h 66% 0.00in /  0mm 0 W/m2
18:34 70.4 °F /  21.3 °C 58.6 °F /  14.8 °C 29.99in /  1015.5hPa Calm   1mph /  1.6km/h 66.2% 0.00in /  0mm 0 W/m2
18:39 70.1 °F /  21.2 °C 58.7 °F /  14.8 °C 29.99in /  1015.5hPa Calm     67% 0.00in /  0mm 0 W/m2
18:44 69.8 °F /  21 °C 58.4 °F /  14.7 °C 29.99in /  1015.5hPa Calm     67% 0.00in /  0mm 0 W/m2
18:49 69.5 °F /  20.8 °C 58.1 °F /  14.5 °C 29.99in /  1015.5hPa Calm     67.1% 0.00in /  0mm 0 W/m2
18:54 69.2 °F /  20.7 °C 58.2 °F /  14.6 °C 29.99in /  1015.5hPa Calm     68% 0.00in /  0mm 0 W/m2
18:59 69 °F /  20.6 °C 58 °F /  14.4 °C 29.99in /  1015.5hPa Calm     68% 0.00in /  0mm 0 W/m2
19:04 68.7 °F /  20.4 °C 57.7 °F /  14.3 °C 29.99in /  1015.5hPa Calm     68% 0.00in /  0mm 0 W/m2
19:09 68.5 °F /  20.3 °C 57.9 °F /  14.4 °C 30.00in /  1015.8hPa Calm     68.9% 0.00in /  0mm 0 W/m2
19:14 68.3 °F /  20.2 °C 57.7 °F /  14.3 °C 30.00in /  1015.8hPa Calm     69% 0.00in /  0mm 0 W/m2
19:19 68 °F /  20 °C 57.6 °F /  14.2 °C 30.00in /  1015.8hPa Calm     69.3% 0.00in /  0mm 0 W/m2
19:24 67.8 °F /  19.9 °C 57.7 °F /  14.3 °C 30.00in /  1015.8hPa Calm     70% 0.00in /  0mm 0 W/m2
19:29 67.6 °F /  19.8 °C 57.8 °F /  14.3 °C 30.00in /  1015.8hPa Calm     70.8% 0.00in /  0mm 0 W/m2
19:34 67.3 °F /  19.6 °C 57.8 °F /  14.3 °C 30.00in /  1015.8hPa Calm     71.6% 0.00in /  0mm 0 W/m2
19:39 67.1 °F /  19.5 °C 57.8 °F /  14.3 °C 30.00in /  1015.8hPa Calm     72.2% 0.00in /  0mm 0 W/m2
19:44 66.8 °F /  19.3 °C 57.8 °F /  14.3 °C 30.00in /  1015.8hPa Calm     73% 0.00in /  0mm 0 W/m2
19:49 66.5 °F /  19.2 °C 57.6 °F /  14.2 °C 30.00in /  1015.8hPa Calm     73% 0.00in /  0mm 0 W/m2
19:54 66.2 °F /  19 °C 57.7 °F /  14.3 °C 30.00in /  1015.8hPa Calm     74% 0.00in /  0mm 0 W/m2
19:59 66 °F /  18.9 °C 57.5 °F /  14.2 °C 30.00in /  1015.8hPa Calm     74% 0.00in /  0mm 0 W/m2
20:00 65.9 °F /  18.8 °C 57.4 °F /  14.1 °C 30.00in /  1015.8hPa Calm     74% 0.00in /  0mm 0 W/m2
20:09 65.6 °F /  18.7 °C 57.2 °F /  14 °C 30.00in /  1015.8hPa Calm     74.2% 0.00in /  0mm 0 W/m2
20:14 65.5 °F /  18.6 °C 57.4 °F /  14.1 °C 30.00in /  1015.8hPa Calm     75% 0.00in /  0mm 0 W/m2
20:19 65.3 °F /  18.5 °C 57.2 °F /  14 °C 30.00in /  1015.8hPa Calm     75% 0.00in /  0mm 0 W/m2
20:24 65.1 °F /  18.4 °C 57.3 °F /  14.1 °C 30.00in /  1015.8hPa Calm     75.7% 0.00in /  0mm 0 W/m2
20:29 65 °F /  18.3 °C 57.2 °F /  14 °C 30.00in /  1015.8hPa Calm     76% 0.00in /  0mm 0 W/m2
20:34 64.9 °F /  18.3 °C 57.3 °F /  14.1 °C 30.00in /  1015.8hPa Calm     76.5% 0.00in /  0mm 0 W/m2
20:39 64.8 °F /  18.2 °C 57.4 °F /  14.1 °C 29.99in /  1015.5hPa Calm   1mph /  1.6km/h 77% 0.00in /  0mm 0 W/m2
20:44 64.7 °F /  18.2 °C 57.3 °F /  14.1 °C 29.99in /  1015.5hPa Calm   1mph /  1.6km/h 77% 0.00in /  0mm 0 W/m2
20:49 64.6 °F /  18.1 °C 57.2 °F /  14 °C 29.99in /  1015.5hPa Calm   1mph /  1.6km/h 77% 0.00in /  0mm 0 W/m2
20:54 64.4 °F /  18 °C 57.1 °F /  13.9 °C 29.99in /  1015.5hPa Calm   1mph /  1.6km/h 77% 0.00in /  0mm 0 W/m2
20:59 64.3 °F /  17.9 °C 57.2 °F /  14 °C 29.99in /  1015.5hPa WSW 0.2mph /  0.3km/h 2mph /  3.2km/h 77.5% 0.00in /  0mm 0 W/m2
21:04 64.3 °F /  17.9 °C 57.3 °F /  14.1 °C 29.98in /  1015.1hPa Calm   2mph /  3.2km/h 78% 0.00in /  0mm 0 W/m2
21:09 64.2 °F /  17.9 °C 57.2 °F /  14 °C 29.99in /  1015.5hPa Calm   1mph /  1.6km/h 78% 0.00in /  0mm 0 W/m2
21:14 64.1 °F /  17.8 °C 57.7 °F /  14.3 °C 29.99in /  1015.5hPa Calm   1mph /  1.6km/h 79.8% 0.00in /  0mm 0 W/m2
21:19 64.1 °F /  17.8 °C 58.3 °F /  14.6 °C 29.99in /  1015.5hPa Calm   1mph /  1.6km/h 81.4% 0.00in /  0mm 0 W/m2
21:24 64.1 °F /  17.8 °C 58.5 °F /  14.7 °C 29.99in /  1015.5hPa Calm   1mph /  1.6km/h 82% 0.00in /  0mm 0 W/m2
21:29 64 °F /  17.8 °C 58.1 °F /  14.5 °C 29.99in /  1015.5hPa Calm   1mph /  1.6km/h 81.3% 0.00in /  0mm 0 W/m2
21:34 63.8 °F /  17.7 °C 57.9 °F /  14.4 °C 29.99in /  1015.5hPa WSW 0.1mph /  0.2km/h 1mph /  1.6km/h 81% 0.00in /  0mm 0 W/m2
21:39 63.8 °F /  17.7 °C 57.9 °F /  14.4 °C 29.98in /  1015.1hPa WSW 0.2mph /  0.3km/h 3mph /  4.8km/h 81% 0.00in /  0mm 0 W/m2
21:44 63.8 °F /  17.7 °C 58 °F /  14.4 °C 29.98in /  1015.1hPa Calm   3mph /  4.8km/h 81.3% 0.00in /  0mm 0 W/m2
21:49 63.7 °F /  17.6 °C 57.7 °F /  14.3 °C 29.98in /  1015.1hPa Calm   3mph /  4.8km/h 80.8% 0.00in /  0mm 0 W/m2
21:54 63.7 °F /  17.6 °C 57.4 °F /  14.1 °C 29.98in /  1015.1hPa WSW 0.1mph /  0.2km/h 3mph /  4.8km/h 80% 0.00in /  0mm 0 W/m2
21:59 63.7 °F /  17.6 °C 57.2 °F /  14 °C 29.98in /  1015.1hPa WSW 0.9mph /  1.4km/h 6mph /  9.7km/h 79.3% 0.00in /  0mm 0 W/m2
22:04 63.7 °F /  17.6 °C 57.1 °F /  13.9 °C 29.98in /  1015.1hPa WSW 0.3mph /  0.5km/h 6mph /  9.7km/h 79% 0.00in /  0mm 0 W/m2
22:09 63.7 °F /  17.6 °C 57.1 °F /  13.9 °C 29.98in /  1015.1hPa WSW 0.5mph /  0.8km/h 7mph /  11.3km/h 79% 0.00in /  0mm 0 W/m2
22:14 63.7 °F /  17.6 °C 57.1 °F /  13.9 °C 29.98in /  1015.1hPa WSW 0.1mph /  0.2km/h 7mph /  11.3km/h 79% 0.00in /  0mm 0 W/m2
22:19 63.7 °F /  17.6 °C 57.1 °F /  13.9 °C 29.99in /  1015.5hPa Calm   7mph /  11.3km/h 79% 0.00in /  0mm 0 W/m2
22:24 63.7 °F /  17.6 °C 57 °F /  13.9 °C 29.99in /  1015.5hPa Calm   7mph /  11.3km/h 78.8% 0.00in /  0mm 0 W/m2
22:29 63.7 °F /  17.6 °C 56.7 °F /  13.7 °C 29.99in /  1015.5hPa Calm   7mph /  11.3km/h 78% 0.00in /  0mm 0 W/m2
22:34 63.6 °F /  17.6 °C 56.6 °F /  13.7 °C 29.99in /  1015.5hPa Calm   7mph /  11.3km/h 78% 0.00in /  0mm 0 W/m2
22:39 63.6 °F /  17.6 °C 56.6 °F /  13.7 °C 29.99in /  1015.5hPa WSW 0.1mph /  0.2km/h 2mph /  3.2km/h 78% 0.00in /  0mm 0 W/m2
22:44 63.5 °F /  17.5 °C 56.8 °F /  13.8 °C 29.99in /  1015.5hPa Calm   2mph /  3.2km/h 78.8% 0.00in /  0mm 0 W/m2
22:49 63.3 °F /  17.4 °C 56.7 °F /  13.7 °C 29.99in /  1015.5hPa WSW 0.6mph /  1km/h 3mph /  4.8km/h 79% 0.00in /  0mm 0 W/m2
22:54 63.1 °F /  17.3 °C 56.6 °F /  13.7 °C 29.99in /  1015.5hPa WSW 0.9mph /  1.4km/h 4mph /  6.4km/h 79.3% 0.00in /  0mm 0 W/m2
22:59 62.9 °F /  17.2 °C 56.6 °F /  13.7 °C 29.99in /  1015.5hPa WSW 0.4mph /  0.6km/h 4mph /  6.4km/h 80% 0.00in /  0mm 0 W/m2
23:04 62.6 °F /  17 °C 56.4 °F /  13.6 °C 29.99in /  1015.5hPa WSW 0.2mph /  0.3km/h 4mph /  6.4km/h 80% 0.00in /  0mm 0 W/m2
23:09 62.5 °F /  16.9 °C 56.3 °F /  13.5 °C 29.99in /  1015.5hPa WSW 0.1mph /  0.2km/h 3mph /  4.8km/h 80% 0.00in /  0mm 0 W/m2
23:14 62.4 °F /  16.9 °C 56.5 °F /  13.6 °C 29.99in /  1015.5hPa Calm   3mph /  4.8km/h 81% 0.00in /  0mm 0 W/m2
23:19 62.4 °F /  16.9 °C 56.5 °F /  13.6 °C 29.99in /  1015.5hPa Calm   4mph /  6.4km/h 81% 0.00in /  0mm 0 W/m2
23:24 62.4 °F /  16.9 °C 56.5 °F /  13.6 °C 29.99in /  1015.5hPa Calm   4mph /  6.4km/h 81% 0.00in /  0mm 0 W/m2
23:29 62.4 °F /  16.9 °C 56.5 °F /  13.6 °C 29.99in /  1015.5hPa Calm   4mph /  6.4km/h 81% 0.00in /  0mm 0 W/m2
23:34 62.4 °F /  16.9 °C 56.5 °F /  13.6 °C 29.99in /  1015.5hPa Calm   4mph /  6.4km/h 81% 0.00in /  0mm 0 W/m2
23:39 62.4 °F /  16.9 °C 56.5 °F /  13.6 °C 29.99in /  1015.5hPa Calm     81% 0.00in /  0mm 0 W/m2
23:44 62.4 °F /  16.9 °C 56.5 °F /  13.6 °C 29.99in /  1015.5hPa Calm     81% 0.00in /  0mm 0 W/m2
23:49 62.4 °F /  16.9 °C 56.5 °F /  13.6 °C 29.99in /  1015.5hPa Calm     81% 0.00in /  0mm 0 W/m2
23:54 62.4 °F /  16.9 °C 56.5 °F /  13.6 °C 29.99in /  1015.5hPa Calm     81% 0.00in /  0mm 0 W/m2
23:59 62.3 °F /  16.8 °C 56.4 °F /  13.6 °C 29.99in /  1015.5hPa Calm     81% 0.00in /  0mm 0 W/m2
Hartford County Weather
Compliments of Weather Underground - 4 mb